createdAt,value
2023-03-27T00:00:43.918Z,974.12
2023-03-27T00:01:43.984Z,974.21
2023-03-27T00:02:43.956Z,974.22
2023-03-27T00:03:43.935Z,974.33
2023-03-27T00:04:43.905Z,974.30
2023-03-27T00:05:43.881Z,974.31
2023-03-27T00:06:43.860Z,974.29
2023-03-27T00:07:43.848Z,974.36
2023-03-27T00:08:43.874Z,974.43
2023-03-27T00:09:43.847Z,974.49
2023-03-27T00:10:43.894Z,974.47
2023-03-27T00:11:43.826Z,974.49
2023-03-27T00:12:43.839Z,974.53
2023-03-27T00:13:50.481Z,974.53
2023-03-27T00:14:44.826Z,974.54
2023-03-27T00:15:43.833Z,974.64
2023-03-27T00:16:43.875Z,974.65
2023-03-27T00:17:43.833Z,974.63
2023-03-27T00:18:43.846Z,974.71
2023-03-27T00:19:43.787Z,974.69
2023-03-27T00:20:43.820Z,974.68
2023-03-27T00:21:43.787Z,974.78
2023-03-27T00:22:43.791Z,974.75
2023-03-27T00:23:43.770Z,974.78
2023-03-27T00:24:43.786Z,974.86
2023-03-27T00:25:43.764Z,974.81
2023-03-27T00:26:43.820Z,974.89
2023-03-27T00:27:43.758Z,974.76
2023-03-27T00:28:43.794Z,974.89
2023-03-27T00:29:43.738Z,974.86
2023-03-27T00:30:43.808Z,974.86
2023-03-27T00:31:43.732Z,974.81
2023-03-27T00:32:43.794Z,974.86
2023-03-27T00:33:43.717Z,974.69
2023-03-27T00:34:43.748Z,974.88
2023-03-27T00:35:43.780Z,974.89
2023-03-27T00:36:43.814Z,974.95
2023-03-27T00:37:43.697Z,974.81
2023-03-27T00:38:43.777Z,974.97
2023-03-27T00:39:43.709Z,974.99
2023-03-27T00:40:43.755Z,975.00
2023-03-27T00:41:43.674Z,974.96
2023-03-27T00:42:43.718Z,975.03
2023-03-27T00:43:43.778Z,975.05
2023-03-27T00:44:43.698Z,975.11
2023-03-27T00:45:43.663Z,975.14
2023-03-27T00:46:43.728Z,975.13
2023-03-27T00:47:43.707Z,975.14
2023-03-27T00:48:43.656Z,975.13
2023-03-27T00:49:43.701Z,975.16
2023-03-27T00:50:43.664Z,975.16
2023-03-27T00:51:43.646Z,975.18
2023-03-27T00:52:43.631Z,975.22
2023-03-27T00:53:43.616Z,975.25
2023-03-27T00:54:43.622Z,975.30
2023-03-27T00:55:43.610Z,975.26
2023-03-27T00:56:43.674Z,975.35
2023-03-27T00:57:43.593Z,975.30
2023-03-27T00:58:43.595Z,975.29
2023-03-27T00:59:43.589Z,975.33
2023-03-27T01:00:43.590Z,975.23
2023-03-27T01:01:43.636Z,975.24
2023-03-27T01:02:43.609Z,975.20
2023-03-27T01:03:43.589Z,975.31
2023-03-27T01:04:43.571Z,975.27
2023-03-27T01:05:43.539Z,975.30
2023-03-27T01:06:43.610Z,975.35
2023-03-27T01:08:00.606Z,975.38
2023-03-27T01:08:44.543Z,975.35
2023-03-27T01:09:43.522Z,975.39
2023-03-27T01:10:43.535Z,975.39
2023-03-27T01:11:43.538Z,975.42
2023-03-27T01:12:43.537Z,975.47
2023-03-27T01:13:43.528Z,975.47
2023-03-27T01:14:43.497Z,975.47
2023-03-27T01:15:43.487Z,975.49
2023-03-27T01:16:43.498Z,975.55
2023-03-27T01:17:43.558Z,975.60
2023-03-27T01:18:43.518Z,975.57
2023-03-27T01:19:43.469Z,975.65
2023-03-27T01:20:43.475Z,975.66
2023-03-27T01:21:43.463Z,975.68
2023-03-27T01:22:43.462Z,975.68
2023-03-27T01:24:00.166Z,975.72
2023-03-27T01:24:44.474Z,975.70
2023-03-27T01:25:43.429Z,975.69
2023-03-27T01:26:43.464Z,975.76
2023-03-27T01:27:43.431Z,975.76
2023-03-27T01:28:43.431Z,975.78
2023-03-27T01:29:43.416Z,975.74
2023-03-27T01:30:43.408Z,975.76
2023-03-27T01:31:43.472Z,975.79
2023-03-27T01:32:43.481Z,975.80
2023-03-27T01:33:43.367Z,975.84
2023-03-27T01:34:43.385Z,975.80
2023-03-27T01:35:43.421Z,975.88
2023-03-27T01:36:43.391Z,975.89
2023-03-27T01:37:43.368Z,975.87
2023-03-27T01:38:43.396Z,975.93
2023-03-27T01:39:43.361Z,975.99
2023-03-27T01:40:43.372Z,975.85
2023-03-27T01:41:43.326Z,975.93
2023-03-27T01:42:43.345Z,975.92
2023-03-27T01:43:43.353Z,975.96
2023-03-27T01:44:44.677Z,975.83
2023-03-27T01:45:43.320Z,975.94
2023-03-27T01:46:43.356Z,975.97
2023-03-27T01:47:43.333Z,976.02
2023-03-27T01:48:43.312Z,976.00
2023-03-27T01:49:43.291Z,976.01
2023-03-27T01:50:43.285Z,976.04
2023-03-27T01:51:43.291Z,976.00
2023-03-27T01:52:43.298Z,976.07
2023-03-27T01:53:43.280Z,976.12
2023-03-27T01:54:43.285Z,976.15
2023-03-27T01:55:43.307Z,976.14
2023-03-27T01:56:43.324Z,976.19
2023-03-27T01:57:49.523Z,976.20
2023-03-27T01:58:44.245Z,976.25
2023-03-27T01:59:43.218Z,976.28
2023-03-27T02:01:04.314Z,976.22
2023-03-27T02:01:44.306Z,976.33
2023-03-27T02:02:43.309Z,976.35
2023-03-27T02:03:43.205Z,976.43
2023-03-27T02:04:43.239Z,976.38
2023-03-27T02:05:43.226Z,976.40
2023-03-27T02:06:43.232Z,976.45
2023-03-27T02:07:43.187Z,976.41
2023-03-27T02:08:43.183Z,976.49
2023-03-27T02:09:43.191Z,976.49
2023-03-27T02:10:43.203Z,976.48
2023-03-27T02:11:43.162Z,976.49
2023-03-27T02:12:43.210Z,976.49
2023-03-27T02:13:43.152Z,976.48
2023-03-27T02:14:43.206Z,976.52
2023-03-27T02:15:43.127Z,976.54
2023-03-27T02:16:43.269Z,976.57
2023-03-27T02:17:43.197Z,976.59
2023-03-27T02:18:43.190Z,976.59
2023-03-27T02:19:43.115Z,976.59
2023-03-27T02:20:43.148Z,976.58
2023-03-27T02:21:43.107Z,976.66
2023-03-27T02:22:43.165Z,976.67
2023-03-27T02:23:43.102Z,976.57
2023-03-27T02:24:43.158Z,976.73
2023-03-27T02:25:43.113Z,976.74
2023-03-27T02:26:43.097Z,976.71
2023-03-27T02:27:43.085Z,976.73
2023-03-27T02:28:43.094Z,976.78
2023-03-27T02:29:43.055Z,976.86
2023-03-27T02:30:43.106Z,976.90
2023-03-27T02:31:43.124Z,976.85
2023-03-27T02:32:43.332Z,976.91
2023-03-27T02:33:43.041Z,976.97
2023-03-27T02:34:43.073Z,976.95
2023-03-27T02:35:43.061Z,976.98
2023-03-27T02:36:43.072Z,977.03
2023-03-27T02:37:43.018Z,977.00
2023-03-27T02:38:43.029Z,977.06
2023-03-27T02:39:43.018Z,977.09
2023-03-27T02:40:43.020Z,977.10
2023-03-27T02:41:43.020Z,977.13
2023-03-27T02:42:43.031Z,977.15
2023-03-27T02:43:42.976Z,977.17
2023-03-27T02:44:46.208Z,977.17
2023-03-27T02:45:43.052Z,977.09
2023-03-27T02:46:42.981Z,977.22
2023-03-27T02:47:42.984Z,977.22
2023-03-27T02:48:42.993Z,977.28
2023-03-27T02:49:42.965Z,977.28
2023-03-27T02:50:42.976Z,977.29
2023-03-27T02:51:42.935Z,977.31
2023-03-27T02:52:42.949Z,977.42
2023-03-27T02:53:42.940Z,977.46
2023-03-27T02:54:42.956Z,977.47
2023-03-27T02:55:42.938Z,977.55
2023-03-27T02:56:42.945Z,977.52
2023-03-27T02:57:51.888Z,977.53
2023-03-27T02:58:43.957Z,977.56
2023-03-27T02:59:42.918Z,977.59
2023-03-27T03:00:42.909Z,977.59
2023-03-27T03:01:42.920Z,977.54
2023-03-27T03:02:42.957Z,977.62
2023-03-27T03:03:42.881Z,977.64
2023-03-27T03:04:42.929Z,977.70
2023-03-27T03:05:42.870Z,977.69
2023-03-27T03:06:42.896Z,977.73
2023-03-27T03:07:42.850Z,977.74
2023-03-27T03:08:42.854Z,977.79
2023-03-27T03:09:42.864Z,977.78
2023-03-27T03:10:42.882Z,977.79
2023-03-27T03:11:42.837Z,977.77
2023-03-27T03:12:42.855Z,977.79
2023-03-27T03:13:42.822Z,977.80
2023-03-27T03:14:42.815Z,977.83
2023-03-27T03:15:42.842Z,977.81
2023-03-27T03:16:42.884Z,977.85
2023-03-27T03:17:42.849Z,977.81
2023-03-27T03:18:42.834Z,977.88
2023-03-27T03:19:42.771Z,977.92
2023-03-27T03:20:42.821Z,977.93
2023-03-27T03:21:42.789Z,977.95
2023-03-27T03:22:42.796Z,978.01
2023-03-27T03:23:42.770Z,978.03
2023-03-27T03:24:43.829Z,978.05
2023-03-27T03:25:42.745Z,978.10
2023-03-27T03:26:42.776Z,978.18
2023-03-27T03:27:42.785Z,978.06
2023-03-27T03:28:42.772Z,978.20
2023-03-27T03:29:43.721Z,978.22
2023-03-27T03:30:42.770Z,978.23
2023-03-27T03:31:42.928Z,978.25
2023-03-27T03:32:42.758Z,978.24
2023-03-27T03:33:42.686Z,978.26
2023-03-27T03:34:42.728Z,978.32
2023-03-27T03:35:42.760Z,978.36
2023-03-27T03:36:42.701Z,978.37
2023-03-27T03:37:42.673Z,978.38
2023-03-27T03:38:42.683Z,978.46
2023-03-27T03:39:42.667Z,978.44
2023-03-27T03:40:42.696Z,978.42
2023-03-27T03:41:42.641Z,978.51
2023-03-27T03:42:42.659Z,978.54
2023-03-27T03:43:42.665Z,978.55
2023-03-27T03:44:42.660Z,978.57
2023-03-27T03:45:42.636Z,978.53
2023-03-27T03:46:42.654Z,978.60
2023-03-27T03:47:42.653Z,978.63
2023-03-27T03:48:42.634Z,978.65
2023-03-27T03:49:42.625Z,978.62
2023-03-27T03:50:42.634Z,978.68
2023-03-27T03:51:42.599Z,978.67
2023-03-27T03:52:42.616Z,978.62
2023-03-27T03:53:42.585Z,978.66
2023-03-27T03:54:43.812Z,978.73
2023-03-27T03:55:42.598Z,978.70
2023-03-27T03:56:42.598Z,978.72
2023-03-27T03:57:42.558Z,978.78
2023-03-27T03:58:42.562Z,978.81
2023-03-27T03:59:42.545Z,978.85
2023-03-27T04:00:42.549Z,978.80
2023-03-27T04:01:42.571Z,978.83
2023-03-27T04:02:42.582Z,978.81
2023-03-27T04:03:42.616Z,978.88
2023-03-27T04:04:43.401Z,978.90
2023-03-27T04:05:42.507Z,978.92
2023-03-27T04:06:42.536Z,978.95
2023-03-27T04:07:42.547Z,978.97
2023-03-27T04:08:42.501Z,978.99
2023-03-27T04:09:42.494Z,979.07
2023-03-27T04:10:42.505Z,979.04
2023-03-27T04:11:42.460Z,979.07
2023-03-27T04:12:42.506Z,979.09
2023-03-27T04:13:42.470Z,979.08
2023-03-27T04:14:42.449Z,979.10
2023-03-27T04:15:42.467Z,979.13
2023-03-27T04:16:42.450Z,979.18
2023-03-27T04:17:42.538Z,979.19
2023-03-27T04:18:42.730Z,979.22
2023-03-27T04:19:42.410Z,979.23
2023-03-27T04:20:42.418Z,979.27
2023-03-27T04:21:42.435Z,979.28
2023-03-27T04:22:42.418Z,979.31
2023-03-27T04:23:42.413Z,979.38
2023-03-27T04:24:42.418Z,979.41
2023-03-27T04:25:42.403Z,979.41
2023-03-27T04:26:42.395Z,979.48
2023-03-27T04:27:42.374Z,979.54
2023-03-27T04:28:42.410Z,979.52
2023-03-27T04:29:42.357Z,979.53
2023-03-27T04:30:42.370Z,979.58
2023-03-27T04:31:42.401Z,979.64
2023-03-27T04:32:42.433Z,979.66
2023-03-27T04:33:42.335Z,979.67
2023-03-27T04:34:42.381Z,979.72
2023-03-27T04:35:42.372Z,979.75
2023-03-27T04:36:42.345Z,979.72
2023-03-27T04:37:42.324Z,979.75
2023-03-27T04:38:42.355Z,979.80
2023-03-27T04:39:42.304Z,979.79
2023-03-27T04:40:42.343Z,979.84
2023-03-27T04:41:42.303Z,979.83
2023-03-27T04:42:42.318Z,979.88
2023-03-27T04:43:42.296Z,979.91
2023-03-27T04:44:42.305Z,979.95
2023-03-27T04:45:42.295Z,979.97
2023-03-27T04:46:42.371Z,979.97
2023-03-27T04:47:42.303Z,980.02
2023-03-27T04:48:42.301Z,980.01
2023-03-27T04:49:42.279Z,980.00
2023-03-27T04:50:42.266Z,980.03
2023-03-27T04:51:42.266Z,980.05
2023-03-27T04:52:42.289Z,980.06
2023-03-27T04:53:42.238Z,980.08
2023-03-27T04:54:42.262Z,980.12
2023-03-27T04:55:42.221Z,980.15
2023-03-27T04:56:42.285Z,980.17
2023-03-27T04:57:42.250Z,980.19
2023-03-27T04:58:42.226Z,980.22
2023-03-27T04:59:42.208Z,980.27
2023-03-27T05:00:42.244Z,980.28
2023-03-27T05:01:42.266Z,980.32
2023-03-27T05:02:42.292Z,980.35
2023-03-27T05:03:42.233Z,980.34
2023-03-27T05:04:42.226Z,980.35
2023-03-27T05:05:42.190Z,980.34
2023-03-27T05:06:42.187Z,980.34
2023-03-27T05:07:42.160Z,980.34
2023-03-27T05:08:42.221Z,980.35
2023-03-27T05:09:42.156Z,980.35
2023-03-27T05:10:42.163Z,980.35
2023-03-27T05:11:42.145Z,980.36
2023-03-27T05:12:42.161Z,980.36
2023-03-27T05:13:42.133Z,980.38
2023-03-27T05:14:42.161Z,980.42
2023-03-27T05:15:42.118Z,980.45
2023-03-27T05:16:42.179Z,980.46
2023-03-27T05:17:42.186Z,980.49
2023-03-27T05:18:42.181Z,980.50
2023-03-27T05:19:42.106Z,980.51
2023-03-27T05:20:42.104Z,980.52
2023-03-27T05:21:42.068Z,980.54
2023-03-27T05:22:42.089Z,980.57
2023-03-27T05:23:42.071Z,980.58
2023-03-27T05:24:42.129Z,980.59
2023-03-27T05:25:42.075Z,980.61
2023-03-27T05:26:42.084Z,980.65
2023-03-27T05:27:42.064Z,980.68
2023-03-27T05:28:42.055Z,980.68
2023-03-27T05:29:46.698Z,980.69
2023-03-27T05:30:43.088Z,980.74
2023-03-27T05:31:42.002Z,980.76
2023-03-27T05:32:42.095Z,980.78
2023-03-27T05:33:42.040Z,980.78
2023-03-27T05:34:42.005Z,980.79
2023-03-27T05:35:42.031Z,980.78
2023-03-27T05:36:41.992Z,980.78
2023-03-27T05:37:41.976Z,980.79
2023-03-27T05:38:41.980Z,980.80
2023-03-27T05:39:41.992Z,980.80
2023-03-27T05:40:41.990Z,980.81
2023-03-27T05:41:41.938Z,980.83
2023-03-27T05:42:41.969Z,980.83
2023-03-27T05:43:41.930Z,980.85
2023-03-27T05:44:41.952Z,980.84
2023-03-27T05:45:41.967Z,980.86
2023-03-27T05:46:41.962Z,980.91
2023-03-27T05:47:41.957Z,980.96
2023-03-27T05:48:41.934Z,980.98
2023-03-27T05:49:41.924Z,981.00
2023-03-27T05:50:41.906Z,981.00
2023-03-27T05:51:47.060Z,981.03
2023-03-27T05:52:42.914Z,981.03
2023-03-27T05:53:41.894Z,981.07
2023-03-27T05:54:41.912Z,981.07
2023-03-27T05:55:41.858Z,981.09
2023-03-27T05:56:41.929Z,981.10
2023-03-27T05:57:41.864Z,981.11
2023-03-27T05:58:41.871Z,981.15
2023-03-27T05:59:41.843Z,981.16
2023-03-27T06:00:41.879Z,981.20
2023-03-27T06:01:41.816Z,981.20
2023-03-27T06:02:41.868Z,981.21
2023-03-27T06:03:41.972Z,981.23
2023-03-27T06:04:41.893Z,981.25
2023-03-27T06:05:41.811Z,981.24
2023-03-27T06:06:41.834Z,981.23
2023-03-27T06:07:43.393Z,981.22
2023-03-27T06:08:41.823Z,981.23
2023-03-27T06:09:41.784Z,981.24
2023-03-27T06:10:41.847Z,981.28
2023-03-27T06:11:41.773Z,981.30
2023-03-27T06:12:42.010Z,981.32
2023-03-27T06:13:41.771Z,981.34
2023-03-27T06:14:41.813Z,981.38
2023-03-27T06:15:41.790Z,981.40
2023-03-27T06:16:41.807Z,981.44
2023-03-27T06:17:41.770Z,981.47
2023-03-27T06:18:41.767Z,981.49
2023-03-27T06:19:41.751Z,981.53
2023-03-27T06:20:41.743Z,981.56
2023-03-27T06:21:41.732Z,981.60
2023-03-27T06:22:41.734Z,981.62
2023-03-27T06:23:41.754Z,981.64
2023-03-27T06:24:41.741Z,981.66
2023-03-27T06:25:41.732Z,981.67
2023-03-27T06:26:41.701Z,981.69
2023-03-27T06:27:41.693Z,981.69
2023-03-27T06:28:41.704Z,981.69
2023-03-27T06:29:41.679Z,981.74
2023-03-27T06:30:41.703Z,981.77
2023-03-27T06:31:41.769Z,981.75
2023-03-27T06:32:41.720Z,981.73
2023-03-27T06:33:41.657Z,981.77
2023-03-27T06:34:41.659Z,981.77
2023-03-27T06:35:41.656Z,981.82
2023-03-27T06:36:41.680Z,981.81
2023-03-27T06:37:41.670Z,981.82
2023-03-27T06:38:41.652Z,981.81
2023-03-27T06:39:41.871Z,981.82
2023-03-27T06:40:41.637Z,981.81
2023-03-27T06:41:41.625Z,981.80
2023-03-27T06:42:43.228Z,981.82
2023-03-27T06:43:41.619Z,981.81
2023-03-27T06:44:41.643Z,981.86
2023-03-27T06:45:41.629Z,981.85
2023-03-27T06:46:45.393Z,981.88
2023-03-27T06:47:48.188Z,981.89
2023-03-27T06:48:42.624Z,981.91
2023-03-27T06:49:41.579Z,981.95
2023-03-27T06:50:41.626Z,981.92
2023-03-27T06:51:41.564Z,981.90
2023-03-27T06:52:41.567Z,981.95
2023-03-27T06:53:41.564Z,981.94
2023-03-27T06:54:41.552Z,981.98
2023-03-27T06:55:41.541Z,982.00
2023-03-27T06:56:41.594Z,982.01
2023-03-27T06:57:41.517Z,982.05
2023-03-27T06:58:41.532Z,982.07
2023-03-27T06:59:41.528Z,982.06
2023-03-27T07:00:41.526Z,982.08
2023-03-27T07:01:41.516Z,982.13
2023-03-27T07:02:41.549Z,982.18
2023-03-27T07:03:41.486Z,982.17
2023-03-27T07:04:42.883Z,982.21
2023-03-27T07:05:42.527Z,982.19
2023-03-27T07:06:41.546Z,982.22
2023-03-27T07:07:41.835Z,982.29
2023-03-27T07:08:41.475Z,982.24
2023-03-27T07:09:41.445Z,982.23
2023-03-27T07:10:41.487Z,982.25
2023-03-27T07:11:41.469Z,982.28
2023-03-27T07:12:41.558Z,982.29
2023-03-27T07:13:41.502Z,982.33
2023-03-27T07:14:41.442Z,982.37
2023-03-27T07:15:41.429Z,982.40
2023-03-27T07:16:41.478Z,982.31
2023-03-27T07:17:48.548Z,982.37
2023-03-27T07:18:42.436Z,982.40
2023-03-27T07:19:41.422Z,982.40
2023-03-27T07:20:41.426Z,982.41
2023-03-27T07:21:41.401Z,982.39
2023-03-27T07:22:41.496Z,982.38
2023-03-27T07:23:41.525Z,982.39
2023-03-27T07:24:41.397Z,982.41
2023-03-27T07:25:41.364Z,982.43
2023-03-27T07:26:41.390Z,982.47
2023-03-27T07:27:41.381Z,982.43
2023-03-27T07:28:41.395Z,982.49
2023-03-27T07:29:41.376Z,982.48
2023-03-27T07:30:41.375Z,982.49
2023-03-27T07:31:55.385Z,982.42
2023-03-27T07:32:42.473Z,982.51
2023-03-27T07:33:41.484Z,982.43
2023-03-27T07:34:41.332Z,982.49
2023-03-27T07:35:41.347Z,982.44
2023-03-27T07:36:41.340Z,982.45
2023-03-27T07:37:41.339Z,982.52
2023-03-27T07:38:41.308Z,982.51
2023-03-27T07:39:41.355Z,982.52
2023-03-27T07:40:41.400Z,982.54
2023-03-27T07:41:41.303Z,982.55
2023-03-27T07:42:41.339Z,982.52
2023-03-27T07:43:41.262Z,982.53
2023-03-27T07:44:41.279Z,982.54
2023-03-27T07:45:41.333Z,982.52
2023-03-27T07:46:41.266Z,982.57
2023-03-27T07:47:41.253Z,982.54
2023-03-27T07:48:41.274Z,982.56
2023-03-27T07:49:41.215Z,982.55
2023-03-27T07:50:41.242Z,982.61
2023-03-27T07:51:41.211Z,982.64
2023-03-27T07:52:41.212Z,982.66
2023-03-27T07:53:41.178Z,982.61
2023-03-27T07:54:41.188Z,982.68
2023-03-27T07:55:41.156Z,982.63
2023-03-27T07:56:41.269Z,982.53
2023-03-27T07:57:55.410Z,982.62
2023-03-27T07:58:41.215Z,982.62
2023-03-27T07:59:41.121Z,982.66
2023-03-27T08:00:41.155Z,982.66
2023-03-27T08:01:41.109Z,982.71
2023-03-27T08:02:41.120Z,982.74
2023-03-27T08:03:41.230Z,982.76
2023-03-27T08:04:41.187Z,982.78
2023-03-27T08:05:41.097Z,982.64
2023-03-27T08:06:41.110Z,982.77
2023-03-27T08:07:41.071Z,982.81
2023-03-27T08:08:41.061Z,982.76
2023-03-27T08:09:41.081Z,982.80
2023-03-27T08:10:41.041Z,982.85
2023-03-27T08:11:41.024Z,982.85
2023-03-27T08:12:41.026Z,982.84
2023-03-27T08:13:41.044Z,982.89
2023-03-27T08:14:41.020Z,982.90
2023-03-27T08:15:41.001Z,982.87
2023-03-27T08:16:41.108Z,982.93
2023-03-27T08:17:41.169Z,982.92
2023-03-27T08:18:41.028Z,982.89
2023-03-27T08:19:40.966Z,982.97
2023-03-27T08:20:40.997Z,983.01
2023-03-27T08:21:40.982Z,983.03
2023-03-27T08:22:40.970Z,983.01
2023-03-27T08:23:40.927Z,982.93
2023-03-27T08:24:40.927Z,983.01
2023-03-27T08:25:40.941Z,983.03
2023-03-27T08:26:40.928Z,983.05
2023-03-27T08:27:40.890Z,983.07
2023-03-27T08:28:40.914Z,983.10
2023-03-27T08:29:40.877Z,983.14
2023-03-27T08:30:40.912Z,983.10
2023-03-27T08:31:40.887Z,983.07
2023-03-27T08:32:40.883Z,983.12
2023-03-27T08:33:40.836Z,983.15
2023-03-27T08:34:40.874Z,983.16
2023-03-27T08:35:40.865Z,983.16
2023-03-27T08:36:40.848Z,983.19
2023-03-27T08:37:40.804Z,983.25
2023-03-27T08:38:40.819Z,983.16
2023-03-27T08:39:40.802Z,983.20
2023-03-27T08:40:40.832Z,983.27
2023-03-27T08:41:40.786Z,983.24
2023-03-27T08:42:40.791Z,983.28
2023-03-27T08:43:40.799Z,983.31
2023-03-27T08:44:40.782Z,983.26
2023-03-27T08:45:40.746Z,983.29
2023-03-27T08:46:40.875Z,983.30
2023-03-27T08:47:40.756Z,983.25
2023-03-27T08:48:40.752Z,983.20
2023-03-27T08:49:40.718Z,983.27
2023-03-27T08:50:40.741Z,983.30
2023-03-27T08:51:40.720Z,983.31
2023-03-27T08:52:40.726Z,983.28
2023-03-27T08:53:40.694Z,983.33
2023-03-27T08:54:40.722Z,983.30
2023-03-27T08:55:40.672Z,983.31
2023-03-27T08:56:40.717Z,983.31
2023-03-27T08:57:40.678Z,983.32
2023-03-27T08:58:40.675Z,983.33
2023-03-27T08:59:40.652Z,983.29
2023-03-27T09:00:40.667Z,983.32
2023-03-27T09:01:40.655Z,983.35
2023-03-27T09:02:40.726Z,983.33
2023-03-27T09:03:40.784Z,983.37
2023-03-27T09:04:40.647Z,983.43
2023-03-27T09:05:40.625Z,983.39
2023-03-27T09:06:40.623Z,983.32
2023-03-27T09:07:40.634Z,983.39
2023-03-27T09:08:40.608Z,983.36
2023-03-27T09:09:40.603Z,983.44
2023-03-27T09:10:40.577Z,983.43
2023-03-27T09:11:40.555Z,983.40
2023-03-27T09:12:40.579Z,983.43
2023-03-27T09:13:40.530Z,983.50
2023-03-27T09:14:40.578Z,983.55
2023-03-27T09:15:40.611Z,983.49
2023-03-27T09:16:40.592Z,983.54
2023-03-27T09:17:40.562Z,983.62
2023-03-27T09:18:40.521Z,983.63
2023-03-27T09:19:40.500Z,983.55
2023-03-27T09:20:40.533Z,983.60
2023-03-27T09:21:40.524Z,983.57
2023-03-27T09:22:40.483Z,983.56
2023-03-27T09:23:40.512Z,983.50
2023-03-27T09:24:40.481Z,983.56
2023-03-27T09:25:40.441Z,983.56
2023-03-27T09:26:40.477Z,983.56
2023-03-27T09:27:40.427Z,983.50
2023-03-27T09:28:40.451Z,983.56
2023-03-27T09:29:40.425Z,983.47
2023-03-27T09:30:40.434Z,983.35
2023-03-27T09:31:40.459Z,983.46
2023-03-27T09:32:40.464Z,983.50
2023-03-27T09:33:40.400Z,983.55
2023-03-27T09:34:40.413Z,983.52
2023-03-27T09:35:40.451Z,983.60
2023-03-27T09:36:40.385Z,983.52
2023-03-27T09:37:40.388Z,983.54
2023-03-27T09:38:40.392Z,983.52
2023-03-27T09:39:40.372Z,983.57
2023-03-27T09:40:40.358Z,983.59
2023-03-27T09:41:40.328Z,983.56
2023-03-27T09:42:40.371Z,983.60
2023-03-27T09:43:40.312Z,983.55
2023-03-27T09:44:40.338Z,983.60
2023-03-27T09:45:40.322Z,983.57
2023-03-27T09:46:40.376Z,983.63
2023-03-27T09:47:40.334Z,983.64
2023-03-27T09:48:40.357Z,983.64
2023-03-27T09:49:40.268Z,983.65
2023-03-27T09:50:40.264Z,983.59
2023-03-27T09:51:40.274Z,983.65
2023-03-27T09:52:40.259Z,983.61
2023-03-27T09:53:40.276Z,983.54
2023-03-27T09:54:40.257Z,983.68
2023-03-27T09:55:40.229Z,983.60
2023-03-27T09:56:40.269Z,983.65
2023-03-27T09:57:40.203Z,983.59
2023-03-27T09:58:40.232Z,983.66
2023-03-27T09:59:40.215Z,983.54
2023-03-27T10:00:40.268Z,983.67
2023-03-27T10:01:40.186Z,983.62
2023-03-27T10:02:40.194Z,983.63
2023-03-27T10:03:40.176Z,983.69
2023-03-27T10:04:40.173Z,983.65
2023-03-27T10:05:40.201Z,983.66
2023-03-27T10:06:40.147Z,983.66
2023-03-27T10:07:40.153Z,983.55
2023-03-27T10:08:40.119Z,983.61
2023-03-27T10:09:40.126Z,983.64
2023-03-27T10:10:40.116Z,983.72
2023-03-27T10:11:40.107Z,983.77
2023-03-27T10:12:40.119Z,983.64
2023-03-27T10:13:40.072Z,983.76
2023-03-27T10:14:40.085Z,983.54
2023-03-27T10:15:40.100Z,983.75
2023-03-27T10:16:40.156Z,983.76
2023-03-27T10:17:40.102Z,983.75
2023-03-27T10:18:40.056Z,983.76
2023-03-27T10:19:40.032Z,983.74
2023-03-27T10:20:40.040Z,983.77
2023-03-27T10:21:40.023Z,983.82
2023-03-27T10:22:40.062Z,983.65
2023-03-27T10:23:40.031Z,983.78
2023-03-27T10:24:44.473Z,983.80
2023-03-27T10:25:40.978Z,983.67
2023-03-27T10:26:39.991Z,983.76
2023-03-27T10:27:39.991Z,983.84
2023-03-27T10:28:39.987Z,983.76
2023-03-27T10:29:41.381Z,983.75
2023-03-27T10:30:39.959Z,983.75
2023-03-27T10:31:39.993Z,983.39
2023-03-27T10:32:40.001Z,983.73
2023-03-27T10:33:39.936Z,983.61
2023-03-27T10:34:39.939Z,983.74
2023-03-27T10:35:39.956Z,983.81
2023-03-27T10:36:39.907Z,983.83
2023-03-27T10:37:39.907Z,983.89
2023-03-27T10:38:39.925Z,983.89
2023-03-27T10:39:39.897Z,984.03
2023-03-27T10:40:39.909Z,984.05
2023-03-27T10:41:39.868Z,983.99
2023-03-27T10:42:39.867Z,984.02
2023-03-27T10:43:39.846Z,984.14
2023-03-27T10:44:39.876Z,984.11
2023-03-27T10:45:39.942Z,984.12
2023-03-27T10:46:39.874Z,984.13
2023-03-27T10:47:39.848Z,984.07
2023-03-27T10:48:39.828Z,984.07
2023-03-27T10:49:39.789Z,984.07
2023-03-27T10:50:39.845Z,984.05
2023-03-27T10:51:46.518Z,984.04
2023-03-27T10:52:40.845Z,984.05
2023-03-27T10:53:39.806Z,984.03
2023-03-27T10:54:39.899Z,984.02
2023-03-27T10:55:39.771Z,984.03
2023-03-27T10:56:39.807Z,984.06
2023-03-27T10:57:39.763Z,984.03
2023-03-27T10:58:39.771Z,983.99
2023-03-27T11:00:40.726Z,984.05
2023-03-27T11:01:39.818Z,984.00
2023-03-27T11:02:39.787Z,984.01
2023-03-27T11:03:39.720Z,984.08
2023-03-27T11:03:47.562Z,984.09
2023-03-27T11:04:39.746Z,984.07
2023-03-27T11:05:39.685Z,984.12
2023-03-27T11:06:40.831Z,984.11
2023-03-27T11:07:39.654Z,984.00
2023-03-27T11:08:39.697Z,984.00
2023-03-27T11:09:39.680Z,984.11
2023-03-27T11:10:39.673Z,984.15
2023-03-27T11:11:39.672Z,983.98
2023-03-27T11:12:39.645Z,984.01
2023-03-27T11:13:39.627Z,983.96
2023-03-27T11:14:39.656Z,984.06
2023-03-27T11:15:39.610Z,984.03
2023-03-27T11:16:39.698Z,984.11
2023-03-27T11:17:39.626Z,984.12
2023-03-27T11:18:39.637Z,984.08
2023-03-27T11:19:39.591Z,984.01
2023-03-27T11:20:39.596Z,984.08
2023-03-27T11:21:39.549Z,984.15
2023-03-27T11:22:39.565Z,983.98
2023-03-27T11:23:39.579Z,983.92
2023-03-27T11:24:39.579Z,984.05
2023-03-27T11:25:39.541Z,984.03
2023-03-27T11:26:39.578Z,984.12
2023-03-27T11:27:39.547Z,984.08
2023-03-27T11:28:39.584Z,984.07
2023-03-27T11:29:39.494Z,984.10
2023-03-27T11:30:39.563Z,984.08
2023-03-27T11:31:39.612Z,984.11
2023-03-27T11:32:39.559Z,984.08
2023-03-27T11:33:39.473Z,984.16
2023-03-27T11:34:39.510Z,984.08
2023-03-27T11:35:39.464Z,984.10
2023-03-27T11:36:39.448Z,984.14
2023-03-27T11:37:39.444Z,984.13
2023-03-27T11:38:39.456Z,984.25
2023-03-27T11:39:39.405Z,984.22
2023-03-27T11:40:46.424Z,984.32
2023-03-27T11:41:39.432Z,984.44
2023-03-27T11:42:39.421Z,984.58
2023-03-27T11:43:39.403Z,984.41
2023-03-27T11:44:39.385Z,984.71
2023-03-27T11:45:39.348Z,984.65
2023-03-27T11:46:39.396Z,984.68
2023-03-27T11:47:39.422Z,984.69
2023-03-27T11:48:39.359Z,984.74
2023-03-27T11:49:39.362Z,984.74
2023-03-27T11:50:39.345Z,984.80
2023-03-27T11:51:39.333Z,984.79
2023-03-27T11:52:39.346Z,984.76
2023-03-27T11:53:39.299Z,984.77
2023-03-27T11:54:39.350Z,984.78
2023-03-27T11:55:39.354Z,984.69
2023-03-27T11:56:39.350Z,984.72
2023-03-27T11:57:39.298Z,984.70
2023-03-27T11:58:39.268Z,984.65
2023-03-27T11:59:39.262Z,984.61
2023-03-27T12:00:39.307Z,984.55
2023-03-27T12:01:39.307Z,984.56
2023-03-27T12:02:39.349Z,984.52
2023-03-27T12:03:39.371Z,984.53
2023-03-27T12:04:39.273Z,984.53
2023-03-27T12:05:39.209Z,984.47
2023-03-27T12:06:39.243Z,984.50
2023-03-27T12:07:44.097Z,984.53
2023-03-27T12:08:40.239Z,984.48
2023-03-27T12:09:39.197Z,984.55
2023-03-27T12:10:39.229Z,984.48
2023-03-27T12:11:39.186Z,984.56
2023-03-27T12:12:39.172Z,984.50
2023-03-27T12:13:42.435Z,984.54
2023-03-27T12:14:41.005Z,984.43
2023-03-27T12:15:39.173Z,984.54
2023-03-27T12:16:39.217Z,984.60
2023-03-27T12:17:39.164Z,984.57
2023-03-27T12:18:41.365Z,984.49
2023-03-27T12:19:40.114Z,984.53
2023-03-27T12:20:48.709Z,984.52
2023-03-27T12:21:40.084Z,984.51
2023-03-27T12:22:39.112Z,984.55
2023-03-27T12:23:39.092Z,984.52
2023-03-27T12:24:42.317Z,984.59
2023-03-27T12:25:40.086Z,984.59
2023-03-27T12:26:39.096Z,984.54
2023-03-27T12:27:39.125Z,984.52
2023-03-27T12:28:40.781Z,984.62